Time;durP1;ratioP1;P1;durP2;ratioP2;P2;SDS_P1;SDS_P2;PMS_P1;PMS_P2;Temp;Humidity;BMP_temperature;BMP_pressure;BME280_temperature;BME280_humidity;BME280_pressure;Samples;Min_cycle;Max_cycle;Signal;HPM_P1;HPM_P2
2023/09/25 00:00:46;;;;;;;3.72;1.45;;;;;;;11.88;100.00;101686.13;5199244;28;20035;-70
2023/09/25 00:03:16;;;;;;;4.55;1.90;;;;;;;11.63;100.00;101684.94;5214498;28;20032;-70
2023/09/25 00:05:47;;;;;;;2.90;2.00;;;;;;;11.50;100.00;101688.69;5197881;28;20400;-70
2023/09/25 00:08:17;;;;;;;4.05;1.75;;;;;;;11.46;100.00;101679.16;5218285;28;20116;-70
2023/09/25 00:10:47;;;;;;;2.60;1.70;;;;;;;11.36;100.00;101682.88;5217191;28;20037;-70
2023/09/25 00:13:18;;;;;;;3.25;1.80;;;;;;;11.52;100.00;101681.66;5185573;28;20017;-70
2023/09/25 00:15:48;;;;;;;2.60;1.80;;;;;;;11.46;100.00;101680.94;5210994;28;20040;-70
2023/09/25 00:18:19;;;;;;;3.95;1.80;;;;;;;11.54;100.00;101672.03;5210528;28;20110;-70
2023/09/25 00:20:49;;;;;;;4.93;1.77;;;;;;;11.61;100.00;101671.00;5203033;28;20024;-70
2023/09/25 00:23:20;;;;;;;4.35;1.90;;;;;;;11.76;100.00;101681.16;5225102;28;20051;-70
2023/09/25 00:25:50;;;;;;;4.60;1.90;;;;;;;11.77;100.00;101680.25;5218201;28;20024;-70
2023/09/25 00:28:21;;;;;;;2.67;1.67;;;;;;;11.74;100.00;101679.44;5216460;28;20425;-70
2023/09/25 00:30:51;;;;;;;3.65;1.92;;;;;;;11.61;100.00;101685.88;5196952;28;20390;-70
2023/09/25 00:33:21;;;;;;;4.72;2.20;;;;;;;11.67;100.00;101677.88;5213814;28;20029;-70
2023/09/25 00:35:56;;;;;;;3.38;1.70;;;;;;;11.65;100.00;101683.13;5218172;28;20021;-70
2023/09/25 00:38:26;;;;;;;4.15;1.60;;;;;;;11.66;100.00;101687.50;5202568;28;20083;-70
2023/09/25 00:40:56;;;;;;;3.47;1.90;;;;;;;11.61;100.00;101686.72;5192892;28;20029;-70
2023/09/25 00:43:27;;;;;;;4.60;1.80;;;;;;;11.61;100.00;101680.63;5216002;28;20029;-70
2023/09/25 00:45:57;;;;;;;3.50;1.92;;;;;;;11.58;100.00;101681.56;5213673;28;20104;-70
2023/09/25 00:48:29;;;;;;;3.47;1.55;;;;;;;11.57;100.00;101689.44;5217653;28;20029;-70
2023/09/25 00:51:00;;;;;;;3.10;1.95;;;;;;;11.59;100.00;101696.38;5217077;28;20029;-71
2023/09/25 00:53:31;;;;;;;2.45;1.58;;;;;;;11.65;100.00;101690.16;5217339;28;20160;-70
2023/09/25 00:56:02;;;;;;;4.03;1.83;;;;;;;11.62;100.00;101690.22;5212228;28;20550;-70
2023/09/25 00:58:32;;;;;;;2.75;1.65;;;;;;;11.63;100.00;101687.53;5199357;28;20406;-70
2023/09/25 01:01:03;;;;;;;5.70;1.65;;;;;;;11.63;100.00;101694.56;5200234;28;20025;-70
2023/09/25 01:03:33;;;;;;;2.85;1.67;;;;;;;11.69;100.00;101687.44;5197533;28;20021;-70
2023/09/25 01:06:05;;;;;;;4.93;1.77;;;;;;;11.71;100.00;101683.00;5212790;28;20045;-70
2023/09/25 01:08:35;;;;;;;2.40;1.52;;;;;;;11.76;100.00;101685.53;5218374;28;20097;-70
2023/09/25 01:11:05;;;;;;;3.55;1.70;;;;;;;11.69;100.00;101687.44;5209518;28;20033;-70
2023/09/25 01:13:35;;;;;;;3.67;1.83;;;;;;;11.58;100.00;101699.88;5212414;28;20020;-70
2023/09/25 01:16:06;;;;;;;2.53;1.80;;;;;;;11.46;100.00;101681.78;5207207;28;20053;-70
2023/09/25 01:18:36;;;;;;;2.53;1.73;;;;;;;11.44;100.00;101678.34;5211599;28;20246;-70
2023/09/25 01:21:06;;;;;;;4.15;1.60;;;;;;;11.42;100.00;101674.06;5195230;28;20051;-70
2023/09/25 01:23:37;;;;;;;2.92;1.63;;;;;;;11.40;100.00;101676.69;5213370;28;20090;-70
2023/09/25 01:26:07;;;;;;;8.10;2.10;;;;;;;11.34;100.00;101681.19;5212559;28;20472;-70
2023/09/25 01:28:37;;;;;;;2.53;1.85;;;;;;;11.31;100.00;101682.09;5215475;28;20086;-70
2023/09/25 01:31:08;;;;;;;2.47;1.85;;;;;;;11.18;100.00;101680.66;5210279;28;20026;-70
2023/09/25 01:33:38;;;;;;;4.03;1.90;;;;;;;11.10;100.00;101677.31;5195236;28;20016;-70
2023/09/25 01:36:11;;;;;;;3.97;2.13;;;;;;;11.07;100.00;101672.16;5211978;28;20021;-70
2023/09/25 01:38:41;;;;;;;3.03;2.00;;;;;;;10.97;100.00;101668.88;5213905;28;20028;-70
2023/09/25 01:41:13;;;;;;;4.93;2.13;;;;;;;10.99;100.00;101672.34;5209159;28;20026;-70
2023/09/25 01:43:43;;;;;;;2.53;1.60;;;;;;;10.93;100.00;101673.31;5197582;28;20052;-70
2023/09/25 01:46:13;;;;;;;7.95;2.42;;;;;;;10.92;100.00;101663.75;5211739;28;20071;-70
2023/09/25 01:48:43;;;;;;;2.45;1.80;;;;;;;11.00;100.00;101666.22;5222003;28;20060;-70
2023/09/25 01:51:14;;;;;;;2.58;1.73;;;;;;;11.08;100.00;101667.78;5205537;28;20039;-70
2023/09/25 01:53:46;;;;;;;3.22;1.90;;;;;;;11.10;100.00;101661.63;5218872;28;20020;-70
2023/09/25 01:56:16;;;;;;;5.95;2.25;;;;;;;10.96;100.00;101661.91;5211319;28;20022;-70
2023/09/25 01:58:46;;;;;;;3.33;2.10;;;;;;;10.93;100.00;101661.97;5197546;28;20029;-70
2023/09/25 02:01:17;;;;;;;3.95;2.22;;;;;;;10.78;100.00;101651.81;5199808;28;20029;-70
2023/09/25 02:03:47;;;;;;;2.55;1.88;;;;;;;10.76;100.00;101659.72;5221334;28;20035;-72
2023/09/25 02:06:18;;;;;;;2.80;1.85;;;;;;;10.89;100.00;101649.88;5199758;28;20025;-73
2023/09/25 02:08:48;;;;;;;3.13;1.98;;;;;;;10.89;100.00;101655.09;5216274;28;20078;-73
2023/09/25 02:11:18;;;;;;;5.55;2.30;;;;;;;10.52;100.00;101659.28;5195200;28;20071;-72
2023/09/25 02:13:48;;;;;;;3.20;1.90;;;;;;;10.58;100.00;101659.19;5196711;28;20565;-73
2023/09/25 02:16:19;;;;;;;3.53;2.17;;;;;;;10.60;100.00;101654.78;5211568;28;20025;-73
2023/09/25 02:18:50;;;;;;;2.65;1.80;;;;;;;10.59;100.00;101661.78;5218342;28;20428;-73
2023/09/25 02:21:20;;;;;;;2.88;1.70;;;;;;;10.63;100.00;101646.88;5220319;28;20052;-73
2023/09/25 02:23:50;;;;;;;4.18;2.28;;;;;;;10.44;100.00;101648.09;5198551;28;20124;-72
2023/09/25 02:26:21;;;;;;;2.75;1.95;;;;;;;10.53;100.00;101640.13;5211458;28;20017;-73
2023/09/25 02:28:51;;;;;;;3.85;2.17;;;;;;;10.56;100.00;101650.50;5217872;28;20246;-73
2023/09/25 02:31:21;;;;;;;4.07;2.03;;;;;;;10.65;100.00;101656.44;5209672;28;20656;-73
2023/09/25 02:33:52;;;;;;;4.20;2.20;;;;;;;10.65;100.00;101655.56;5213794;28;20020;-73
2023/09/25 02:36:22;;;;;;;5.00;2.20;;;;;;;10.56;100.00;101646.16;5214540;28;20033;-73
2023/09/25 02:38:52;;;;;;;5.45;2.30;;;;;;;10.56;100.00;101638.31;5200506;28;20028;-73
2023/09/25 02:41:23;;;;;;;5.18;2.38;;;;;;;10.59;100.00;101640.00;5222259;28;20044;-73
2023/09/25 02:43:53;;;;;;;3.92;2.13;;;;;;;10.64;100.00;101641.63;5203969;28;20028;-72
2023/09/25 02:46:23;;;;;;;4.18;2.30;;;;;;;10.63;100.00;101637.28;5217225;28;20048;-73
2023/09/25 02:48:54;;;;;;;3.65;2.22;;;;;;;10.51;100.00;101640.13;5219831;28;20603;-73
2023/09/25 02:51:24;;;;;;;4.30;2.47;;;;;;;10.41;100.00;101640.31;5222259;28;20126;-72
2023/09/25 02:53:54;;;;;;;4.57;2.45;;;;;;;10.33;100.00;101643.06;5201293;28;20036;-72
2023/09/25 02:56:25;;;;;;;3.45;2.20;;;;;;;10.34;100.00;101638.72;5215970;28;20267;-72
2023/09/25 02:58:55;;;;;;;4.15;2.58;;;;;;;10.32;100.00;101636.13;5220663;28;20186;-73
2023/09/25 03:01:25;;;;;;;3.90;2.75;;;;;;;10.28;100.00;101637.06;5197060;28;20036;-73
2023/09/25 03:03:55;;;;;;;4.10;2.58;;;;;;;10.39;100.00;101636.88;5215520;28;20500;-73
2023/09/25 03:06:26;;;;;;;4.70;2.63;;;;;;;10.33;100.00;101637.00;5220762;28;20025;-72
2023/09/25 03:08:56;;;;;;;4.43;2.72;;;;;;;10.41;100.00;101640.31;5222884;28;20057;-72
2023/09/25 03:11:26;;;;;;;5.68;2.60;;;;;;;10.45;100.00;101631.53;5208462;28;20186;-72
2023/09/25 03:13:57;;;;;;;4.10;2.60;;;;;;;10.28;100.00;101623.13;5220435;28;20029;-73
2023/09/25 03:16:27;;;;;;;5.47;2.50;;;;;;;10.32;100.00;101624.81;5203091;28;20032;-72
2023/09/25 03:18:58;;;;;;;9.73;2.65;;;;;;;10.35;100.00;101630.00;5197140;28;20025;-73
2023/09/25 03:21:29;;;;;;;7.65;2.65;;;;;;;10.47;100.00;101629.75;5221441;28;20116;-73
2023/09/25 03:23:59;;;;;;;3.60;2.42;;;;;;;10.42;100.00;101632.47;5198010;28;20488;-73
2023/09/25 03:26:29;;;;;;;5.78;2.47;;;;;;;10.33;100.00;101622.16;5197939;28;20103;-73
2023/09/25 03:29:00;;;;;;;4.78;2.40;;;;;;;10.21;100.00;101625.03;5215008;28;20065;-73
2023/09/25 03:31:30;;;;;;;4.70;2.83;;;;;;;10.16;100.00;101629.44;5202527;28;20116;-72
2023/09/25 03:34:01;;;;;;;4.35;2.40;;;;;;;10.22;100.00;101637.19;5205165;28;20284;-73
2023/09/25 03:36:31;;;;;;;3.70;2.53;;;;;;;10.23;100.00;101632.81;5216161;28;20106;-72
2023/09/25 03:39:02;;;;;;;5.13;2.60;;;;;;;10.25;100.00;101631.03;5198982;28;20018;-73
2023/09/25 03:41:33;;;;;;;3.25;2.35;;;;;;;10.29;100.00;101625.72;5204738;28;20478;-73
2023/09/25 03:44:04;;;;;;;4.95;2.45;;;;;;;10.34;100.00;101629.13;5219289;28;20021;-72
2023/09/25 03:46:34;;;;;;;4.22;2.55;;;;;;;10.19;100.00;101628.53;5219416;28;20138;-73
2023/09/25 03:49:07;;;;;;;4.68;3.30;;;;;;;10.17;100.00;101630.31;5197761;28;20032;-73
2023/09/25 03:51:38;;;;;;;5.05;2.72;;;;;;;10.10;100.00;101631.28;5222346;28;20452;-73
2023/09/25 03:54:08;;;;;;;4.35;2.85;;;;;;;10.08;100.00;101625.22;5216692;28;20034;-73
2023/09/25 03:56:38;;;;;;;4.82;3.75;;;;;;;10.10;100.00;101632.16;5214571;28;20082;-73
2023/09/25 03:59:11;;;;;;;4.82;3.40;;;;;;;10.13;100.00;101628.66;5216487;28;20047;-73
2023/09/25 04:01:41;;;;;;;4.93;3.55;;;;;;;10.18;100.00;101624.19;5220316;28;20489;-73
2023/09/25 04:04:11;;;;;;;5.07;3.60;;;;;;;10.21;100.00;101626.75;5202011;28;20036;-73
2023/09/25 04:06:42;;;;;;;7.85;3.95;;;;;;;10.15;100.00;101632.09;5226699;28;20027;-72
2023/09/25 04:09:12;;;;;;;6.25;4.00;;;;;;;10.21;100.00;101631.97;5219400;28;20323;-73
2023/09/25 04:11:42;;;;;;;10.18;3.92;;;;;;;10.19;100.00;101633.75;5223820;28;20111;-72
2023/09/25 04:14:12;;;;;;;8.48;3.70;;;;;;;10.17;100.00;101627.69;5218138;28;20029;-73
2023/09/25 04:16:43;;;;;;;5.10;3.67;;;;;;;10.05;100.00;101636.59;5222604;28;20369;-72
2023/09/25 04:19:13;;;;;;;6.05;4.03;;;;;;;9.97;100.00;101637.59;5215913;28;20285;-72
2023/09/25 04:21:47;;;;;;;5.03;3.80;;;;;;;10.13;100.00;101628.66;5206958;28;20028;-72
2023/09/25 04:24:17;;;;;;;7.07;4.13;;;;;;;10.11;100.00;101628.66;5217216;28;20120;-73
2023/09/25 04:26:48;;;;;;;6.68;4.30;;;;;;;10.03;100.00;101640.97;5222753;28;20700;-73
2023/09/25 04:29:18;;;;;;;6.70;4.32;;;;;;;10.11;100.00;101638.22;5217231;28;20079;-73
2023/09/25 04:31:49;;;;;;;6.97;4.18;;;;;;;10.07;100.00;101640.06;5209168;28;20035;-72
2023/09/25 04:34:19;;;;;;;5.95;3.90;;;;;;;10.14;100.00;101640.81;5219057;28;20037;-73
2023/09/25 04:36:49;;;;;;;7.13;4.30;;;;;;;10.09;100.00;101635.66;5220576;28;20032;-72
2023/09/25 04:39:20;;;;;;;5.90;4.40;;;;;;;10.12;100.00;101642.56;5212529;28;20116;-73
2023/09/25 04:41:50;;;;;;;7.88;5.50;;;;;;;10.21;100.00;101631.97;5196221;28;20471;-73
2023/09/25 04:44:20;;;;;;;7.00;4.53;;;;;;;10.27;100.00;101631.84;5201868;28;20243;-72
2023/09/25 04:46:51;;;;;;;7.65;4.88;;;;;;;10.22;100.00;101631.09;5199038;28;20036;-72
2023/09/25 04:49:21;;;;;;;6.82;4.95;;;;;;;10.23;100.00;101635.41;5220317;28;20549;-73
2023/09/25 04:51:51;;;;;;;8.38;5.13;;;;;;;10.19;100.00;101636.38;5226046;28;20123;-72
2023/09/25 04:54:22;;;;;;;7.35;4.47;;;;;;;10.29;100.00;101635.31;5229294;28;20508;-73
2023/09/25 04:56:52;;;;;;;8.25;4.63;;;;;;;10.22;100.00;101628.47;5203095;28;20028;-72
2023/09/25 04:59:22;;;;;;;7.63;4.85;;;;;;;10.21;100.00;101625.03;5217968;28;20391;-73
2023/09/25 05:01:53;;;;;;;8.43;4.55;;;;;;;10.19;100.00;101621.53;5218858;28;20025;-73
2023/09/25 05:04:23;;;;;;;5.13;4.30;;;;;;;10.09;100.00;101629.56;5217919;28;20048;-73
2023/09/25 05:06:53;;;;;;;6.70;4.35;;;;;;;10.14;100.00;101627.75;5215574;28;20032;-72
2023/09/25 05:09:24;;;;;;;6.32;4.22;;;;;;;10.10;100.00;101633.91;5214303;28;20021;-72
2023/09/25 05:11:54;;;;;;;7.25;4.25;;;;;;;10.10;100.00;101633.91;5210039;28;20496;-72
2023/09/25 05:14:25;;;;;;;6.40;4.18;;;;;;;10.01;100.00;101641.88;5220091;28;20025;-72
2023/09/25 05:16:56;;;;;;;6.90;4.35;;;;;;;10.10;100.00;101641.72;5222053;28;20028;-73
2023/09/25 05:19:26;;;;;;;6.75;4.75;;;;;;;10.06;100.00;101642.69;5200291;28;20405;-73
2023/09/25 05:21:56;;;;;;;9.90;5.47;;;;;;;10.18;100.00;101638.09;5205322;28;20025;-73
2023/09/25 05:24:27;;;;;;;7.63;4.95;;;;;;;10.21;100.00;101642.44;5218696;28;20114;-72
2023/09/25 05:26:57;;;;;;;7.60;4.93;;;;;;;10.19;100.00;101649.44;5200544;28;20366;-73
2023/09/25 05:29:27;;;;;;;8.13;5.03;;;;;;;10.38;100.00;101650.84;5223324;28;20111;-73
2023/09/25 05:31:58;;;;;;;6.30;4.18;;;;;;;10.41;100.00;101646.44;5204054;28;20033;-73
2023/09/25 05:34:28;;;;;;;8.40;4.93;;;;;;;10.35;100.00;101653.50;5194571;28;20029;-72
2023/09/25 05:36:58;;;;;;;6.85;4.78;;;;;;;10.46;100.00;101643.72;5217978;28;20021;-73
2023/09/25 05:39:29;;;;;;;6.75;4.90;;;;;;;10.47;100.00;101646.31;5217711;28;20033;-73
2023/09/25 05:41:59;;;;;;;7.28;4.75;;;;;;;10.55;100.00;101640.94;5227510;28;20093;-73
2023/09/25 05:44:29;;;;;;;8.20;4.82;;;;;;;10.62;100.00;101650.38;5210722;28;20021;-73
2023/09/25 05:47:00;;;;;;;6.55;4.68;;;;;;;10.67;100.00;101651.19;5229284;28;20511;-73
2023/09/25 05:49:30;;;;;;;5.75;4.10;;;;;;;10.72;100.00;101654.56;5227647;28;20075;-73
2023/09/25 05:52:00;;;;;;;7.25;4.30;;;;;;;10.79;100.00;101643.09;5228391;28;20036;-73
2023/09/25 05:54:31;;;;;;;6.43;4.43;;;;;;;10.82;100.00;101649.13;5228580;28;20115;-73
2023/09/25 05:57:01;;;;;;;7.78;4.35;;;;;;;10.84;100.00;101651.72;5211798;28;20111;-73
2023/09/25 05:59:35;;;;;;;5.68;3.63;;;;;;;10.90;100.00;101656.81;5232897;28;20028;-72
2023/09/25 06:02:07;;;;;;;8.02;3.60;;;;;;;10.96;100.00;101654.06;5232008;28;20021;-73
2023/09/25 06:04:37;;;;;;;5.28;4.00;;;;;;;10.99;100.00;101657.50;5209624;28;20024;-73
2023/09/25 06:07:08;;;;;;;5.28;3.50;;;;;;;11.07;100.00;101651.22;5234885;28;20033;-73
2023/09/25 06:09:38;;;;;;;4.43;3.35;;;;;;;11.17;100.00;101662.34;5233542;28;20505;-73
2023/09/25 06:12:09;;;;;;;5.97;3.72;;;;;;;11.36;100.00;101656.72;5216229;28;20076;-73
2023/09/25 06:14:39;;;;;;;4.72;3.35;;;;;;;11.42;100.00;101653.94;5233418;28;20123;-73
2023/09/25 06:17:10;;;;;;;5.60;3.35;;;;;;;11.44;100.00;101662.63;5234198;28;20047;-73
2023/09/25 06:19:40;;;;;;;8.07;3.30;;;;;;;11.44;100.00;101660.00;5211394;28;20556;-73
2023/09/25 06:22:12;;;;;;;5.75;3.20;;;;;;;11.53;100.00;101667.69;5231265;28;20036;-73
2023/09/25 06:24:42;;;;;;;5.70;3.33;;;;;;;11.60;100.00;101665.81;5228276;28;20390;-73
2023/09/25 06:27:12;;;;;;;5.90;3.55;;;;;;;11.71;100.00;101672.53;5221063;28;20064;-73
2023/09/25 06:29:45;;;;;;;5.15;3.30;;;;;;;11.78;100.00;101674.09;5225826;28;20026;-73
2023/09/25 06:32:16;;;;;;;6.82;3.92;;;;;;;11.82;100.00;101675.75;5229361;28;20107;-73
2023/09/25 06:34:46;;;;;;;5.00;3.42;;;;;;;11.91;100.00;101680.78;5228305;28;20585;-73
2023/09/25 06:37:16;;;;;;;5.05;3.58;;;;;;;12.04;100.00;101677.00;5225079;28;20100;-73
2023/09/25 06:39:47;;;;;;;5.47;3.47;;;;;;;12.20;100.00;101683.59;5225692;28;20497;-73
2023/09/25 06:42:17;;;;;;;5.38;3.28;;;;;;;12.44;100.00;101677.72;5202452;28;20036;-73
2023/09/25 06:44:47;;;;;;;5.35;3.30;;;;;;;12.55;100.00;101674.81;5225171;28;20510;-73
2023/09/25 06:47:17;;;;;;;5.03;3.53;;;;;;;12.63;100.00;101678.97;5226759;28;20025;-73
2023/09/25 06:49:48;;;;;;;5.50;3.35;;;;;;;12.85;100.00;101677.47;5232495;28;20474;-74
2023/09/25 06:52:18;;;;;;;8.38;3.45;;;;;;;12.99;100.00;101678.88;5223073;28;20103;-74
2023/09/25 06:54:48;;;;;;;5.68;3.08;;;;;;;13.17;100.00;101677.47;5225216;28;20033;-74
2023/09/25 06:57:19;;;;;;;4.75;3.10;;;;;;;13.44;100.00;101676.69;5220474;28;20516;-73
2023/09/25 06:59:50;;;;;;;5.88;2.65;;;;;;;13.56;100.00;101673.72;5207887;28;20028;-73
2023/09/25 07:02:20;;;;;;;4.93;2.75;;;;;;;13.86;100.00;101675.38;5227882;28;20541;-74
2023/09/25 07:04:50;;;;;;;3.45;2.28;;;;;;;13.94;100.00;101673.38;5225172;28;20031;-73
2023/09/25 07:07:21;;;;;;;5.30;2.38;;;;;;;14.06;100.00;101671.22;5222292;28;20052;-74
2023/09/25 07:09:52;;;;;;;6.07;2.30;;;;;;;14.24;100.00;101667.16;5220923;28;20024;-73
2023/09/25 07:12:22;;;;;;;3.25;1.90;;;;;;;14.58;100.00;101667.75;5219927;28;20025;-74
2023/09/25 07:14:56;;;;;;;2.58;1.70;;;;;;;15.24;99.78;101664.44;5209063;28;20117;-74
2023/09/25 07:17:27;;;;;;;2.80;1.45;;;;;;;16.26;93.52;101656.84;5220712;28;20079;-74
2023/09/25 07:19:59;;;;;;;2.28;1.08;;;;;;;17.31;85.23;101658.34;5222952;28;20069;-74
2023/09/25 07:22:30;;;;;;;3.22;1.20;;;;;;;18.97;79.46;101648.19;5218589;28;20032;-74
2023/09/25 07:25:01;;;;;;;2.65;0.90;;;;;;;21.03;74.28;101645.13;5206539;28;20040;-75
2023/09/25 07:27:35;;;;;;;4.97;1.25;;;;;;;21.20;68.84;101650.25;5225414;28;20017;-72
2023/09/25 07:30:06;;;;;;;4.35;1.13;;;;;;;22.19;64.95;101641.09;5218005;28;20421;-72
2023/09/25 07:32:37;;;;;;;2.63;0.82;;;;;;;22.42;65.24;101648.47;5209335;28;20099;-72
2023/09/25 07:35:10;;;;;;;1.98;1.00;;;;;;;24.09;63.40;101639.03;5225492;28;20021;-72
2023/09/25 07:37:42;;;;;;;1.88;0.90;;;;;;;23.91;62.36;101642.19;5222506;28;20501;-72
2023/09/25 07:40:14;;;;;;;2.50;1.00;;;;;;;24.06;61.62;101644.56;5222582;28;20104;-73
2023/09/25 07:42:44;;;;;;;1.98;0.90;;;;;;;24.80;60.38;101632.59;5222369;28;20056;-72
2023/09/25 07:45:22;;;;;;;2.45;1.00;;;;;;;23.55;61.89;101639.50;5199917;28;20055;-72
2023/09/25 07:47:54;;;;;;;2.80;0.90;;;;;;;24.07;61.88;101645.44;5224257;28;20456;-72
2023/09/25 07:50:25;;;;;;;5.40;0.80;;;;;;;23.93;62.76;101650.94;5221498;28;20078;-72
2023/09/25 07:52:55;;;;;;;1.83;0.85;;;;;;;23.72;60.21;101645.31;5222181;28;20517;-71
2023/09/25 07:55:26;;;;;;;1.88;0.80;;;;;;;24.61;60.63;101644.84;5224520;28;20127;-72
2023/09/25 07:57:56;;;;;;;1.25;0.60;;;;;;;24.51;59.74;101650.94;5221188;28;20020;-72
2023/09/25 08:00:34;;;;;;;2.25;0.77;;;;;;;;;;5203388;28;20119;-72
2023/09/25 08:03:08;;;;;;;1.00;0.52;;;;;;;24.79;60.25;101651.44;5200853;28;20178;-72
2023/09/25 08:05:39;;;;;;;1.23;0.70;;;;;;;24.95;60.92;101654.66;5200040;28;20028;-72
2023/09/25 08:08:12;;;;;;;1.10;0.70;;;;;;;25.55;57.80;101652.47;5217518;28;20462;-72
2023/09/25 08:10:47;;;;;;;2.97;0.82;;;;;;;25.42;58.98;101662.47;5224379;28;20271;-73
2023/09/25 08:13:18;;;;;;;1.63;0.80;;;;;;;25.56;59.23;101651.50;5216813;28;20025;-72
2023/09/25 08:15:48;;;;;;;1.80;0.80;;;;;;;26.61;57.29;101642.69;5221815;28;20024;-73
2023/09/25 08:18:18;;;;;;;2.33;0.60;;;;;;;26.89;56.27;101649.09;5221762;28;20044;-72
2023/09/25 08:20:49;;;;;;;1.13;0.70;;;;;;;24.87;63.88;101657.91;5224960;28;20698;-72
2023/09/25 08:23:19;;;;;;;1.23;0.90;;;;;;;25.87;58.78;101640.88;5223369;28;20052;-73
2023/09/25 08:25:49;;;;;;;4.13;0.90;;;;;;;24.63;62.63;101644.72;5228330;28;20024;-72
2023/09/25 08:28:20;;;;;;;7.13;0.80;;;;;;;26.83;58.80;101643.41;5225290;28;20279;-72
2023/09/25 08:30:50;;;;;;;1.92;1.02;;;;;;;25.54;59.46;101653.47;5230261;28;20285;-72
2023/09/25 08:33:20;;;;;;;1.48;0.68;;;;;;;26.30;58.51;101654.25;5212624;28;20090;-72
2023/09/25 08:35:52;;;;;;;2.87;0.80;;;;;;;25.16;59.44;101658.31;5213589;28;20521;-72
2023/09/25 08:38:22;;;;;;;1.48;0.70;;;;;;;26.24;58.84;101654.78;5221186;28;20734;-73
2023/09/25 08:40:53;;;;;;;2.92;0.70;;;;;;;26.34;59.54;101659.25;5209743;28;20070;-72
2023/09/25 08:43:26;;;;;;;2.67;0.90;;;;;;;25.56;60.03;101656.84;5224260;28;20017;-72
2023/09/25 08:45:57;;;;;;;1.63;0.70;;;;;;;25.90;60.54;101656.72;5229061;28;20024;-73
2023/09/25 08:48:27;;;;;;;1.48;0.65;;;;;;;26.53;59.38;101653.22;5207491;28;20060;-72
2023/09/25 08:50:58;;;;;;;2.70;0.80;;;;;;;26.54;57.33;101653.06;5227751;28;20029;-71
2023/09/25 08:53:29;;;;;;;1.90;0.73;;;;;;;26.99;55.73;101647.31;5224622;28;20041;-72
2023/09/25 08:55:59;;;;;;;1.67;0.70;;;;;;;27.28;54.88;101640.28;5231608;28;20431;-72
2023/09/25 08:58:30;;;;;;;1.40;0.73;;;;;;;27.12;54.34;101642.59;5209655;28;20564;-72
2023/09/25 09:01:00;;;;;;;0.95;0.40;;;;;;;25.31;58.81;101647.25;5209944;28;20028;-72
2023/09/25 09:03:33;;;;;;;3.20;0.70;;;;;;;25.67;56.12;101638.09;5229861;28;20017;-72
2023/09/25 09:06:04;;;;;;;1.15;0.60;;;;;;;26.05;57.05;101638.53;5225989;28;20271;-72
2023/09/25 09:08:36;;;;;;;2.00;0.82;;;;;;;24.31;59.67;101643.59;5224412;28;20479;-72
2023/09/25 09:11:10;;;;;;;2.30;0.73;;;;;;;23.78;61.87;101647.56;5208350;28;20199;-72
2023/09/25 09:13:46;;;;;;;1.52;0.90;;;;;;;22.97;61.52;101642.75;5229495;28;20029;-71
2023/09/25 09:16:17;;;;;;;;;;;;;;;23.01;63.22;101644.25;5223628;28;20451;-72
2023/09/25 09:18:47;;;;;;;2.03;0.68;;;;;;;22.58;63.71;101644.66;5229677;28;20011;-71
2023/09/25 09:21:21;;;;;;;4.05;1.27;;;;;;;22.54;63.53;101642.28;5223634;28;20465;-72
2023/09/25 09:23:54;;;;;;;1.70;0.60;;;;;;;22.85;64.97;101637.44;5228799;28;20025;-71
2023/09/25 09:26:25;;;;;;;1.67;0.70;;;;;;;22.46;65.13;101639.28;5209246;28;20111;-70
2023/09/25 09:28:55;;;;;;;2.33;0.75;;;;;;;22.29;67.10;101636.88;5228941;28;20505;-71
2023/09/25 09:31:25;;;;;;;1.15;0.70;;;;;;;22.49;63.03;101623.97;5221027;28;20056;-71
2023/09/25 09:33:56;;;;;;;3.08;0.88;;;;;;;22.20;65.76;101632.16;5222162;28;20398;-71
2023/09/25 09:36:28;;;;;;;3.28;0.90;;;;;;;21.87;64.24;101627.25;5225844;28;20033;-71
2023/09/25 09:39:01;;;;;;;1.55;0.70;;;;;;;22.01;64.66;101621.88;5224012;28;20033;-71
2023/09/25 09:41:32;;;;;;;1.60;0.80;;;;;;;21.66;64.28;101619.81;5226127;28;20108;-72
2023/09/25 09:44:03;;;;;;;2.83;0.70;;;;;;;22.06;65.92;101609.09;5226178;28;20029;-71
2023/09/25 09:46:35;;;;;;;2.03;0.90;;;;;;;21.55;63.30;101616.97;5225496;28;20525;-72
2023/09/25 09:49:06;;;;;;;1.50;0.70;;;;;;;21.28;64.62;101616.03;5208389;28;20491;-71
2023/09/25 09:51:36;;;;;;;3.42;0.70;;;;;;;21.62;65.65;101610.28;5217662;28;20119;-71
2023/09/25 09:54:08;;;;;;;1.88;0.60;;;;;;;21.74;65.13;101598.88;5220898;28;20332;-72
2023/09/25 09:56:39;;;;;;;0.95;0.70;;;;;;;21.42;67.49;101597.41;5225802;28;20421;-71
2023/09/25 09:59:09;;;;;;;1.60;0.77;;;;;;;21.79;67.56;101584.31;5222908;28;20119;-71
2023/09/25 10:01:43;;;;;;;2.13;0.88;;;;;;;21.71;67.24;101591.09;5229816;28;20116;-71
2023/09/25 10:04:15;;;;;;;2.08;0.80;;;;;;;21.56;67.86;101597.38;5224147;28;20017;-71
2023/09/25 10:06:52;;;;;;;2.10;0.90;;;;;;;21.26;66.08;101599.34;5210835;28;20044;-71
2023/09/25 10:09:22;;;;;;;2.03;0.70;;;;;;;21.10;68.10;101598.59;5221774;28;20550;-71
2023/09/25 10:11:54;;;;;;;1.00;0.80;;;;;;;20.81;66.27;101603.03;5230669;28;20039;-71
2023/09/25 10:14:26;;;;;;;1.35;0.77;;;;;;;21.18;67.21;101594.50;5222745;28;20021;-71
2023/09/25 10:17:03;;;;;;;2.97;0.63;;;;;;;21.08;66.20;101605.81;5211120;28;20031;-71
2023/09/25 10:19:47;;;;;;;2.05;0.68;;;;;;;20.86;66.53;101600.13;5207771;28;20067;-71
2023/09/25 10:22:25;;;;;;;2.08;0.70;;;;;;;20.93;65.21;101599.63;5208938;28;20029;-71
2023/09/25 10:25:10;;;;;;;2.80;0.68;;;;;;;20.75;64.11;101597.22;5228243;28;20035;-71
2023/09/25 10:27:43;;;;;;;2.00;0.77;;;;;;;20.85;67.82;101593.06;5229551;28;20020;-71
2023/09/25 10:30:17;;;;;;;2.83;0.90;;;;;;;21.05;67.63;101595.38;5226061;28;20036;-71
2023/09/25 10:32:52;;;;;;;1.10;0.60;;;;;;;20.94;64.51;101589.84;5227475;28;20126;-71
2023/09/25 10:35:35;;;;;;;1.58;0.75;;;;;;;20.76;69.17;101591.78;5205193;28;20390;-71
2023/09/25 10:38:13;;;;;;;1.67;1.00;;;;;;;20.62;65.94;101593.59;5225065;28;20139;-71
2023/09/25 10:40:46;;;;;;;1.13;0.63;;;;;;;20.61;66.21;101589.22;5209437;28;20040;-71
2023/09/25 10:43:19;;;;;;;2.70;0.85;;;;;;;20.79;66.15;101593.41;5223126;28;20020;-71
2023/09/25 10:45:50;;;;;;;1.30;0.75;;;;;;;20.75;64.43;101587.44;5205979;28;20029;-72
2023/09/25 10:48:24;;;;;;;1.35;0.70;;;;;;;20.69;66.66;101584.31;5225481;28;20029;-71
2023/09/25 10:50:55;;;;;;;0.90;0.70;;;;;;;20.58;67.75;101583.25;5206900;28;20024;-71
2023/09/25 10:53:28;;;;;;;3.50;0.80;;;;;;;20.76;68.49;101577.66;5223000;28;20029;-71
2023/09/25 10:55:59;;;;;;;3.10;0.98;;;;;;;20.71;69.37;101577.09;5209784;28;20020;-71
2023/09/25 10:58:29;;;;;;;2.80;1.00;;;;;;;20.72;67.94;101574.34;5222760;28;20477;-71
2023/09/25 11:01:02;;;;;;;4.47;0.93;;;;;;;20.67;68.43;101573.78;5226678;28;20119;-71
2023/09/25 11:03:32;;;;;;;2.47;0.82;;;;;;;20.71;66.34;101569.13;5209149;28;20021;-70
2023/09/25 11:06:03;;;;;;;2.65;1.05;;;;;;;20.69;67.13;101566.56;5210250;28;20500;-71
2023/09/25 11:08:34;;;;;;;2.67;1.10;;;;;;;20.67;67.28;101558.78;5229399;28;20029;-71
2023/09/25 11:11:06;;;;;;;1.10;0.70;;;;;;;20.90;65.12;101559.09;5230672;28;20024;-71
2023/09/25 11:13:36;;;;;;;6.35;0.90;;;;;;;20.95;65.86;101555.22;5208561;28;20037;-71
2023/09/25 11:16:07;;;;;;;2.65;0.90;;;;;;;21.02;68.57;101561.84;5226582;28;20025;-72
2023/09/25 11:18:37;;;;;;;2.35;0.90;;;;;;;20.90;65.42;101562.59;5211809;28;20108;-71
2023/09/25 11:21:10;;;;;;;1.55;0.80;;;;;;;20.72;64.76;101555.72;5226734;28;20028;-72
2023/09/25 11:23:43;;;;;;;3.40;1.13;;;;;;;20.82;66.73;101558.69;5227445;28;20013;-71
2023/09/25 11:26:14;;;;;;;2.38;1.00;;;;;;;20.97;70.23;101550.66;5222674;28;20385;-71
2023/09/25 11:28:44;;;;;;;3.72;1.10;;;;;;;21.10;68.94;101556.03;5227153;28;20042;-71
2023/09/25 11:31:14;;;;;;;1.48;1.00;;;;;;;21.06;70.90;101559.84;5209664;28;20383;-71
2023/09/25 11:33:44;;;;;;;3.33;1.20;;;;;;;20.79;69.28;101551.78;5227884;28;20035;-71
2023/09/25 11:36:15;;;;;;;1.85;0.80;;;;;;;20.93;67.69;101542.97;5223743;28;20481;-71
2023/09/25 11:38:52;;;;;;;2.15;0.82;;;;;;;20.88;66.44;101545.06;5227544;28;20618;-71